Time;durP1;ratioP1;P1;durP2;ratioP2;P2;SDS_P1;SDS_P2;PMS_P1;PMS_P2;Temp;Humidity;BMP_temperature;BMP_pressure;BME280_temperature;BME280_humidity;BME280_pressure;Samples;Min_cycle;Max_cycle;Signal;HPM_P1;HPM_P2
2023/12/21 00:02:24;;;;;;;0.53;0.53;;;;;3.70;95729.00;;;;5073160;28;20218;-61
2023/12/21 00:04:51;;;;;;;0.70;0.70;;;;;3.60;95734.00;;;;5073394;28;20550;-62
2023/12/21 00:07:18;;;;;;;0.70;0.70;;;;;3.60;95730.00;;;;5073384;28;20205;-61
2023/12/21 00:09:46;;;;;;;0.60;0.60;;;;;3.60;95747.00;;;;5073258;28;20245;-62
2023/12/21 00:12:15;;;;;;;0.77;0.77;;;;;3.60;95726.00;;;;5073079;28;20212;-62
2023/12/21 00:14:42;;;;;;;0.60;0.60;;;4.50;83.00;3.70;95718.00;;;;5073690;28;20238;-62
2023/12/21 00:17:12;;;;;;;0.60;0.60;;;4.50;83.80;3.60;95732.00;;;;5071797;28;20202;-63
2023/12/21 00:19:38;;;;;;;0.63;0.63;;;;;3.50;95731.00;;;;5073350;28;20671;-63
2023/12/21 00:22:06;;;;;;;0.60;0.60;;;;;3.50;95719.00;;;;5073162;28;20211;-62
2023/12/21 00:24:33;;;;;;;0.63;0.63;;;4.30;85.30;3.50;95711.00;;;;5073046;28;20270;-62
2023/12/21 00:27:00;;;;;;;0.60;0.60;;;;;3.50;95711.00;;;;5073143;28;20187;-62
2023/12/21 00:29:30;;;;;;;0.80;0.80;;;;;3.60;95701.00;;;;5073181;28;20195;-62
2023/12/21 00:32:00;;;;;;;0.60;0.60;;;;;3.40;95690.00;;;;5075550;28;20384;-62
2023/12/21 00:34:27;;;;;;;0.60;0.60;;;;;3.40;95687.00;;;;5076833;28;20215;-62
2023/12/21 00:36:54;;;;;;;0.93;0.93;;;4.30;86.70;3.30;95684.00;;;;5076991;28;20191;-62
2023/12/21 00:39:21;;;;;;;0.50;0.50;;;4.20;88.00;3.40;95700.00;;;;5076931;28;20651;-62
2023/12/21 00:41:49;;;;;;;0.50;0.50;;;4.20;87.80;3.40;95697.00;;;;5076817;28;20207;-62
2023/12/21 00:44:17;;;;;;;0.70;0.70;;;4.20;88.40;3.30;95661.00;;;;5076839;28;20192;-62
2023/12/21 00:46:46;;;;;;;0.67;0.67;;;;;3.30;95693.00;;;;5076764;28;20187;-62
2023/12/21 00:49:13;;;;;;;0.67;0.67;;;4.20;88.00;3.40;95685.00;;;;5077007;28;20195;-62
2023/12/21 00:51:40;;;;;;;0.70;0.70;;;4.30;96.20;3.60;95686.00;;;;5076573;28;20686;-62
2023/12/21 00:54:07;;;;;;;0.70;0.70;;;4.30;86.60;3.40;95664.00;;;;5076528;28;20225;-62
2023/12/21 00:56:34;;;;;;;0.60;0.60;;;4.20;87.00;3.40;95668.00;;;;5076665;28;20651;-62
2023/12/21 00:59:04;;;;;;;0.60;0.60;;;4.20;87.90;3.40;95670.00;;;;5076618;28;20187;-62
2023/12/21 01:01:31;;;;;;;0.63;0.63;;;4.40;86.40;3.60;95686.00;;;;5076358;28;20551;-63
2023/12/21 01:03:59;;;;;;;0.60;0.60;;;4.40;85.70;3.60;95668.00;;;;5076479;28;20192;-62
2023/12/21 01:06:26;;;;;;;0.90;0.90;;;4.40;86.00;3.50;95663.00;;;;5076862;28;20195;-62
2023/12/21 01:08:53;;;;;;;0.60;0.60;;;4.40;85.90;3.60;95671.00;;;;5076326;28;20194;-62
2023/12/21 01:11:20;;;;;;;0.60;0.60;;;4.40;85.30;3.50;95664.00;;;;5076264;28;20184;-62
2023/12/21 01:13:47;;;;;;;0.60;0.60;;;4.40;86.40;3.60;95658.00;;;;5076342;28;20216;-62
2023/12/21 01:16:17;;;;;;;0.50;0.50;;;4.40;85.90;3.50;95646.00;;;;5076161;28;20191;-62
2023/12/21 01:18:44;;;;;;;4.80;1.03;;;4.30;86.40;3.40;95645.00;;;;5074714;28;20201;-63
2023/12/21 01:21:12;;;;;;;2.57;0.93;;;4.30;85.70;3.50;95645.00;;;;5076470;28;20321;-62
2023/12/21 01:23:39;;;;;;;0.60;0.60;;;4.40;85.10;3.50;95640.00;;;;5076622;28;20627;-62
2023/12/21 01:26:06;;;;;;;0.60;0.60;;;4.40;85.80;3.50;95651.00;;;;5076047;28;20198;-61
2023/12/21 01:28:33;;;;;;;0.60;0.60;;;4.40;85.40;3.50;95640.00;;;;5076011;28;20192;-62
2023/12/21 01:31:01;;;;;;;0.60;0.60;;;4.40;86.20;3.50;95642.00;;;;5076127;28;20187;-62
2023/12/21 01:33:28;;;;;;;0.60;0.60;;;4.40;86.00;3.50;95663.00;;;;5076163;28;20204;-62
2023/12/21 01:35:55;;;;;;;0.60;0.60;;;4.20;86.50;3.30;95632.00;;;;5076013;28;20188;-63
2023/12/21 01:38:23;;;;;;;0.70;0.70;;;4.20;86.40;3.30;95635.00;;;;5075702;28;20198;-62
2023/12/21 01:40:50;;;;;;;0.60;0.60;;;4.20;87.20;3.50;95641.00;;;;5076127;28;20207;-62
2023/12/21 01:43:18;;;;;;;0.60;0.60;;;;;3.40;95643.00;;;;5076302;28;20246;-62
2023/12/21 01:45:45;;;;;;;0.60;0.60;;;4.20;86.60;3.30;95650.00;;;;5076679;28;20192;-62
2023/12/21 01:48:12;;;;;;;0.60;0.60;;;4.20;87.60;3.30;95648.00;;;;5076870;28;20192;-62
2023/12/21 01:50:39;;;;;;;0.70;0.70;;;4.20;87.00;3.40;95632.00;;;;5075819;28;20198;-62
2023/12/21 01:53:09;;;;;;;0.70;0.70;;;4.20;87.20;3.30;95633.00;;;;5075507;28;20211;-62
2023/12/21 01:55:38;;;;;;;0.60;0.60;;;4.20;88.00;3.40;95625.00;;;;5075492;28;20619;-62
2023/12/21 01:58:07;;;;;;;0.60;0.60;;;4.20;87.80;3.40;95617.00;;;;5075432;28;20241;-62
2023/12/21 02:00:34;;;;;;;0.60;0.60;;;4.20;88.00;3.40;95618.00;;;;5075578;28;20192;-62
2023/12/21 02:03:02;;;;;;;0.80;0.80;;;4.20;88.50;3.30;95608.00;;;;5075376;28;20208;-62
2023/12/21 02:05:29;;;;;;;0.60;0.60;;;4.10;88.60;3.30;95601.00;;;;5075291;28;20196;-63
2023/12/21 02:07:56;;;;;;;0.60;0.60;;;4.20;88.90;3.40;95605.00;;;;5075772;28;20190;-62
2023/12/21 02:10:23;;;;;;;0.60;0.60;;;;;3.50;95619.00;;;;5075558;28;20194;-62
2023/12/21 02:12:52;;;;;;;0.70;0.70;;;;;3.40;95612.00;;;;5075333;28;20207;-62
2023/12/21 02:15:20;;;;;;;0.60;0.60;;;4.20;88.60;3.40;95583.00;;;;5075244;28;20553;-62
2023/12/21 02:17:49;;;;;;;0.60;0.60;;;4.20;88.20;3.30;95570.00;;;;5074957;28;20222;-62
2023/12/21 02:20:19;;;;;;;0.67;0.67;;;4.10;89.60;3.20;95593.00;;;;5075217;28;20278;-63
2023/12/21 02:22:50;;;;;;;0.80;0.80;;;4.00;90.00;3.20;95572.00;;;;5074846;28;20553;-62
2023/12/21 02:25:18;;;;;;;0.80;0.80;;;4.00;90.60;3.30;95566.00;;;;5074970;28;20301;-62
2023/12/21 02:27:50;;;;;;;0.60;0.60;;;4.20;90.10;3.40;95583.00;;;;5075074;28;20206;-62
2023/12/21 02:30:17;;;;;;;0.60;0.60;;;4.20;90.60;3.30;95584.00;;;;5074895;28;20179;-62
2023/12/21 02:32:44;;;;;;;0.60;0.60;;;4.20;90.70;3.30;95580.00;;;;5074811;28;20610;-62
2023/12/21 02:35:11;;;;;;;0.50;0.50;;;4.10;90.90;3.10;95581.00;;;;5074565;28;20628;-62
2023/12/21 02:37:38;;;;;;;0.50;0.50;;;4.00;91.30;3.10;95574.00;;;;5074643;28;20279;-62
2023/12/21 02:40:07;;;;;;;0.60;0.60;;;4.00;91.30;3.20;95577.00;;;;5074628;28;20547;-62
2023/12/21 02:42:37;;;;;;;0.60;0.60;;;4.00;91.40;3.20;95556.00;;;;5074329;28;20211;-62
2023/12/21 02:45:06;;;;;;;0.60;0.60;;;4.00;91.60;3.20;95557.00;;;;5074936;28;20623;-62
2023/12/21 02:47:32;;;;;;;0.50;0.50;;;4.00;92.00;3.10;95563.00;;;;5074293;28;20191;-62
2023/12/21 02:50:00;;;;;;;15.60;0.90;;;4.00;91.10;3.20;95538.00;;;;5074365;28;20188;-62
2023/12/21 02:52:27;;;;;;;0.53;0.53;;;4.10;90.80;3.20;95535.00;;;;5074848;28;20218;-62
2023/12/21 02:54:54;;;;;;;0.60;0.60;;;4.10;90.60;3.30;95508.00;;;;5073618;28;20211;-62
2023/12/21 02:57:21;;;;;;;0.60;0.60;;;4.10;90.30;3.30;95517.00;;;;5074482;28;20184;-62
2023/12/21 02:59:50;;;;;;;0.60;0.60;;;4.10;90.30;3.30;95510.00;;;;5074525;28;20195;-62
2023/12/21 03:02:17;;;;;;;0.70;0.70;;;4.30;93.40;3.30;95497.00;;;;5074079;28;20260;-62
2023/12/21 03:04:44;;;;;;;0.60;0.60;;;4.20;89.90;3.40;95490.00;;;;5074161;28;20284;-62
2023/12/21 03:07:11;;;;;;;0.60;0.60;;;4.20;89.70;3.30;95474.00;;;;5074016;28;20198;-62
2023/12/21 03:09:38;;;;;;;0.60;0.60;;;4.30;90.00;3.50;95451.00;;;;5074215;28;20190;-62
2023/12/21 03:12:06;;;;;;;0.60;0.60;;;4.30;89.70;3.40;95465.00;;;;5074100;28;20203;-62
2023/12/21 03:14:33;;;;;;;0.70;0.70;;;4.20;89.90;3.40;95470.00;;;;5073909;28;20678;-62
2023/12/21 03:17:04;;;;;;;0.60;0.60;;;4.20;90.80;3.40;95483.00;;;;5073812;28;20199;-62
2023/12/21 03:19:31;;;;;;;0.70;0.70;;;4.20;89.40;3.40;95478.00;;;;5074136;28;20229;-62
2023/12/21 03:21:58;;;;;;;0.60;0.60;;;4.20;89.90;3.40;95467.00;;;;5073868;28;20212;-62
2023/12/21 03:24:25;;;;;;;0.70;0.70;;;4.20;90.00;3.40;95470.00;;;;5073767;28;20187;-62
2023/12/21 03:26:52;;;;;;;0.60;0.60;;;;;3.30;95458.00;;;;5073761;28;20198;-62
2023/12/21 03:29:19;;;;;;;0.60;0.60;;;4.20;90.40;3.50;95443.00;;;;5073671;28;20204;-62
2023/12/21 03:31:46;;;;;;;0.67;0.67;;;4.30;90.30;3.40;95449.00;;;;5073579;28;20211;-62
2023/12/21 03:34:15;;;;;;;0.70;0.70;;;4.30;90.80;3.40;95443.00;;;;5073526;28;20218;-62
2023/12/21 03:36:41;;;;;;;0.60;0.60;;;4.30;90.90;3.40;95444.00;;;;5073555;28;20184;-62
2023/12/21 03:39:08;;;;;;;0.60;0.60;;;4.20;91.70;3.50;95426.00;;;;5072291;28;20200;-62
2023/12/21 03:41:35;;;;;;;0.60;0.60;;;4.40;91.20;3.50;95427.00;;;;5072219;28;20218;-63
2023/12/21 03:44:02;;;;;;;1.03;1.00;;;4.40;90.60;3.60;95414.00;;;;5074398;28;20191;-62
2023/12/21 03:46:29;;;;;;;0.60;0.60;;;4.40;90.60;3.70;95420.00;;;;5075842;28;20188;-62
2023/12/21 03:48:56;;;;;;;0.60;0.60;;;4.40;89.20;3.60;95426.00;;;;5073731;28;20195;-62
2023/12/21 03:51:25;;;;;;;0.60;0.60;;;;;3.60;95442.00;;;;5072076;28;20202;-62
2023/12/21 03:53:52;;;;;;;0.70;0.70;;;;;3.70;95441.00;;;;5073538;28;20227;-63
2023/12/21 03:56:19;;;;;;;0.73;0.73;;;4.50;88.80;3.70;95434.00;;;;5073638;28;20220;-63
2023/12/21 03:58:46;;;;;;;0.60;0.60;;;4.50;89.80;3.70;95417.00;;;;5073803;28;20571;-62
2023/12/21 04:01:13;;;;;;;0.60;0.60;;;4.50;90.00;3.80;95424.00;;;;5073687;28;20188;-62
2023/12/21 04:03:40;;;;;;;0.60;0.60;;;4.60;89.20;3.70;95426.00;;;;5073189;28;20198;-62
2023/12/21 04:06:07;;;;;;;0.60;0.60;;;4.60;88.20;3.80;95407.00;;;;5073039;28;20187;-62
2023/12/21 04:08:36;;;;;;;0.50;0.50;;;4.70;89.40;3.90;95407.00;;;;5073521;28;20187;-62
2023/12/21 04:11:03;;;;;;;0.57;0.57;;;4.70;88.20;3.80;95413.00;;;;5073233;28;20590;-62
2023/12/21 04:13:30;;;;;;;0.60;0.60;;;4.70;88.30;3.90;95417.00;;;;5073223;28;20211;-62
2023/12/21 04:15:57;;;;;;;0.70;0.70;;;4.80;89.00;3.90;95413.00;;;;5073013;28;20222;-63
2023/12/21 04:18:24;;;;;;;0.60;0.60;;;4.80;88.60;4.00;95402.00;;;;5072968;28;20199;-63
2023/12/21 04:20:51;;;;;;;0.60;0.60;;;4.90;88.80;4.00;95406.00;;;;5073375;28;20609;-62
2023/12/21 04:23:18;;;;;;;0.60;0.60;;;4.90;88.60;4.10;95393.00;;;;5072949;28;20215;-61
2023/12/21 04:25:47;;;;;;;0.60;0.60;;;;;4.10;95388.00;;;;5073016;28;20187;-62
2023/12/21 04:28:14;;;;;;;0.60;0.60;;;5.00;99.90;4.10;95392.00;;;;5073562;28;20194;-63
2023/12/21 04:30:41;;;;;;;0.57;0.57;;;5.00;99.00;4.10;95380.00;;;;5072991;28;20222;-62
2023/12/21 04:33:11;;;;;;;0.60;0.60;;;4.90;88.30;4.00;95382.00;;;;5072983;28;20592;-63
2023/12/21 04:35:38;;;;;;;0.60;0.60;;;4.90;89.10;4.00;95396.00;;;;5073093;28;20211;-62
2023/12/21 04:38:05;;;;;;;0.60;0.60;;;4.80;89.60;4.00;95399.00;;;;5072820;28;20188;-62
2023/12/21 04:40:32;;;;;;;0.70;0.70;;;4.80;90.00;4.00;95380.00;;;;5072765;28;20678;-62
2023/12/21 04:43:01;;;;;;;0.70;0.70;;;4.80;90.50;4.10;95368.00;;;;5072794;28;20234;-62
2023/12/21 04:45:28;;;;;;;0.60;0.60;;;4.90;90.10;4.00;95373.00;;;;5073442;28;20191;-62
2023/12/21 04:47:55;;;;;;;0.60;0.60;;;4.80;89.90;3.90;95356.00;;;;5072741;28;20661;-63
2023/12/21 04:50:22;;;;;;;0.60;0.60;;;4.80;91.00;3.90;95363.00;;;;5073104;28;20198;-62
2023/12/21 04:52:49;;;;;;;0.60;0.60;;;4.80;91.30;3.90;95351.00;;;;5073500;28;20219;-62
2023/12/21 04:55:17;;;;;;;0.50;0.50;;;;;3.90;95354.00;;;;5072556;28;20254;-62
2023/12/21 04:57:44;;;;;;;0.70;0.70;;;4.80;91.30;4.10;95363.00;;;;5073000;28;20192;-61
2023/12/21 05:00:14;;;;;;;0.60;0.60;;;4.90;90.10;4.10;95357.00;;;;5072877;28;20698;-61
2023/12/21 05:02:41;;;;;;;0.60;0.60;;;4.90;90.80;4.20;95361.00;;;;5072458;28;20215;-62
2023/12/21 05:05:08;;;;;;;0.60;0.60;;;5.00;90.50;4.10;95348.00;;;;5073095;28;20542;-61
2023/12/21 05:07:37;;;;;;;0.50;0.50;;;;;4.00;95355.00;;;;5072678;28;20192;-62
2023/12/21 05:10:05;;;;;;;0.50;0.50;;;;;4.00;95334.00;;;;5072859;28;20245;-62
2023/12/21 05:12:32;;;;;;;0.60;0.60;;;;;4.10;95338.00;;;;5072479;28;20231;-62
2023/12/21 05:15:00;;;;;;;0.60;0.60;;;;;4.10;95345.00;;;;5073227;28;20219;-62
2023/12/21 05:17:28;;;;;;;0.70;0.70;;;;;4.10;95344.00;;;;5074132;28;20203;-62
2023/12/21 05:19:56;;;;;;;0.60;0.60;;;;;4.10;95342.00;;;;5075999;28;20214;-62
2023/12/21 05:22:23;;;;;;;0.77;0.77;;;;;4.00;95321.00;;;;5076085;28;20207;-62
2023/12/21 05:24:50;;;;;;;0.50;0.50;;;;;4.00;95339.00;;;;5076495;28;20191;-62
2023/12/21 05:27:18;;;;;;;0.57;0.57;;;;;4.00;95336.00;;;;5076384;28;20675;-62
2023/12/21 05:29:45;;;;;;;0.60;0.60;;;;;3.90;95331.00;;;;5076090;28;20191;-63
2023/12/21 05:32:13;;;;;;;0.60;0.60;;;;;4.00;95330.00;;;;5075882;28;20210;-62
2023/12/21 05:34:41;;;;;;;0.67;0.67;;;;;4.00;95325.00;;;;5075746;28;20199;-62
2023/12/21 05:37:09;;;;;;;0.53;0.53;;;;;3.90;95322.00;;;;5075724;28;20203;-62
2023/12/21 05:39:37;;;;;;;1.20;0.73;;;;;4.00;95309.00;;;;5075781;28;20554;-62
2023/12/21 05:42:05;;;;;;;0.80;0.80;;;;;4.00;95302.00;;;;5075916;28;20207;-62
2023/12/21 05:44:33;;;;;;;0.60;0.60;;;;;4.00;95299.00;;;;5075612;28;20282;-62
2023/12/21 05:47:00;;;;;;;0.50;0.50;;;;;3.80;95296.00;;;;5075714;28;20195;-62
2023/12/21 05:49:27;;;;;;;0.60;0.60;;;;;3.90;95307.00;;;;5075847;28;20214;-62
2023/12/21 05:51:56;;;;;;;0.70;0.70;;;;;3.90;95302.00;;;;5075504;28;20212;-62
2023/12/21 05:54:23;;;;;;;0.53;0.53;;;;;3.90;95292.00;;;;5075502;28;20188;-61
2023/12/21 05:56:51;;;;;;;0.60;0.60;;;;;4.00;95291.00;;;;5075687;28;20219;-62
2023/12/21 05:59:18;;;;;;;0.60;0.60;;;;;3.90;95285.00;;;;5075363;28;20226;-62
2023/12/21 06:01:49;;;;;;;0.60;0.60;;;;;4.00;95296.00;;;;5075869;28;20211;-62
2023/12/21 06:04:16;;;;;;;0.70;0.70;;;;;4.10;95301.00;;;;5075993;28;20191;-62
2023/12/21 06:06:46;;;;;;;0.60;0.60;;;;;4.10;95296.00;;;;5074051;28;20203;-62
2023/12/21 06:09:15;;;;;;;0.60;0.60;;;;;4.00;95285.00;;;;5075609;28;20192;-61
2023/12/21 06:11:42;;;;;;;0.60;0.60;;;;;4.20;95286.00;;;;5075030;28;20203;-61
2023/12/21 06:14:10;;;;;;;0.60;0.60;;;;;4.30;95274.00;;;;5075344;28;20202;-61
2023/12/21 06:16:37;;;;;;;0.57;0.57;;;;;4.40;95275.00;;;;5075582;28;20222;-61
2023/12/21 06:19:09;;;;;;;0.50;0.50;;;;;4.40;95261.00;;;;5075609;28;20580;-62
2023/12/21 06:21:38;;;;;;;0.60;0.60;;;;;4.40;95277.00;;;;5075622;28;20235;-61
2023/12/21 06:24:06;;;;;;;0.60;0.60;;;;;4.40;95253.00;;;;5074964;28;20191;-62
2023/12/21 06:26:40;;;;;;;0.60;0.60;;;;;4.50;95236.00;;;;5074781;28;20192;-63
2023/12/21 06:29:07;;;;;;;0.60;0.60;;;;;4.50;95236.00;;;;5075170;28;20225;-62
2023/12/21 06:31:35;;;;;;;0.70;0.70;;;;;4.50;95224.00;;;;5074717;28;20215;-62
2023/12/21 06:34:02;;;;;;;0.63;0.63;;;;;4.60;95217.00;;;;5074649;28;20196;-62
2023/12/21 06:36:30;;;;;;;0.60;0.60;;;;;4.60;95208.00;;;;5074704;28;20273;-61
2023/12/21 06:38:57;;;;;;;0.60;0.60;;;;;4.60;95206.00;;;;5075276;28;20196;-63
2023/12/21 06:41:24;;;;;;;0.80;0.80;;;;;4.50;95206.00;;;;5074536;28;20618;-62
2023/12/21 06:43:53;;;;;;;0.77;0.77;;;;;4.60;95232.00;;;;5074573;28;20191;-62
2023/12/21 06:46:21;;;;;;;0.60;0.60;;;;;4.60;95196.00;;;;5074486;28;20560;-62
2023/12/21 06:48:48;;;;;;;0.60;0.60;;;;;4.60;95197.00;;;;5075098;28;20199;-62
2023/12/21 06:51:16;;;;;;;0.70;0.70;;;;;4.70;95213.00;;;;5074224;28;20188;-62
2023/12/21 06:53:43;;;;;;;0.70;0.70;;;;;4.70;95209.00;;;;5075444;28;20191;-62
2023/12/21 06:56:10;;;;;;;0.70;0.70;;;;;4.70;95191.00;;;;5074250;28;20221;-62
2023/12/21 06:58:38;;;;;;;0.70;0.70;;;;;4.50;95183.00;;;;5074296;28;20195;-62
2023/12/21 07:01:08;;;;;;;0.80;0.80;;;;;4.60;95187.00;;;;5074108;28;20205;-62
2023/12/21 07:03:36;;;;;;;0.60;0.60;;;;;4.70;95194.00;;;;5074173;28;20204;-62
2023/12/21 07:06:03;;;;;;;0.50;0.50;;;;;4.80;95202.00;;;;5074477;28;20184;-62
2023/12/21 07:08:30;;;;;;;0.60;0.60;;;;;4.80;95191.00;;;;5074187;28;20196;-62
2023/12/21 07:10:58;;;;;;;0.80;0.80;;;;;4.70;95201.00;;;;5073962;28;20187;-62
2023/12/21 07:13:25;;;;;;;0.60;0.60;;;;;4.70;95189.00;;;;5073852;28;20216;-62
2023/12/21 07:15:52;;;;;;;0.50;0.50;;;;;4.70;95179.00;;;;5074087;28;20215;-63
2023/12/21 07:18:21;;;;;;;0.50;0.50;;;;;4.80;95163.00;;;;5073997;28;20203;-63
2023/12/21 07:20:48;;;;;;;0.70;0.70;;;;;4.80;95152.00;;;;5073845;28;20187;-63
2023/12/21 07:23:16;;;;;;;0.60;0.60;;;;;4.70;95169.00;;;;5073576;28;20220;-62
2023/12/21 07:25:44;;;;;;;0.60;0.60;;;;;4.80;95149.00;;;;5073598;28;20658;-62
2023/12/21 07:28:11;;;;;;;0.60;0.60;;;;;4.80;95124.00;;;;5073600;28;20189;-62
2023/12/21 07:30:39;;;;;;;0.70;0.70;;;;;4.80;95122.00;;;;5073683;28;20199;-62
2023/12/21 07:33:06;;;;;;;0.60;0.60;;;;;4.80;95121.00;;;;5073728;28;20621;-62
2023/12/21 07:35:35;;;;;;;0.60;0.60;;;;;5.00;95124.00;;;;5073451;28;20203;-61
2023/12/21 07:38:03;;;;;;;0.60;0.60;;;;;4.90;95113.00;;;;5073759;28;20187;-62
2023/12/21 07:40:30;;;;;;;0.60;0.60;;;;;5.00;95116.00;;;;5072875;28;20191;-61
2023/12/21 07:42:57;;;;;;;0.60;0.60;;;;;4.90;95117.00;;;;5073222;28;20211;-61
2023/12/21 07:45:25;;;;;;;0.50;0.50;;;;;5.00;95118.00;;;;5073858;28;20200;-61
2023/12/21 07:47:52;;;;;;;0.70;0.70;;;;;5.00;95121.00;;;;5073510;28;20196;-61
2023/12/21 07:50:19;;;;;;;0.60;0.60;;;;;5.00;95118.00;;;;5073160;28;20198;-61
2023/12/21 07:52:48;;;;;;;0.60;0.60;;;;;5.00;95133.00;;;;5073114;28;20272;-62
2023/12/21 07:55:16;;;;;;;0.60;0.60;;;;;5.00;95135.00;;;;5073115;28;20202;-62
2023/12/21 07:57:43;;;;;;;0.70;0.70;;;;;5.00;95132.00;;;;5073223;28;20202;-62
2023/12/21 08:00:12;;;;;;;0.60;0.60;;;;;5.10;95109.00;;;;5073140;28;20191;-62
2023/12/21 08:02:44;;;;;;;0.60;0.60;;;;;5.10;95103.00;;;;5073311;28;20299;-62
2023/12/21 08:05:12;;;;;;;0.60;0.60;;;;;5.20;95134.00;;;;5073363;28;20179;-62
2023/12/21 08:07:40;;;;;;;0.67;0.67;;;;;5.10;95119.00;;;;5073214;28;20794;-63
2023/12/21 08:10:10;;;;;;;0.60;0.60;;;;;5.20;95115.00;;;;5073361;28;20195;-62
2023/12/21 08:12:37;;;;;;;0.60;0.60;;;;;5.10;95116.00;;;;5073003;28;20215;-62
2023/12/21 08:15:05;;;;;;;0.60;0.60;;;;;5.20;95125.00;;;;5073182;28;20263;-62
2023/12/21 08:17:34;;;;;;;0.50;0.50;;;;;5.10;95125.00;;;;5073123;28;20218;-62
2023/12/21 08:20:01;;;;;;;0.60;0.60;;;;;5.00;95128.00;;;;5073367;28;20555;-62
2023/12/21 08:22:28;;;;;;;0.60;0.60;;;;;5.30;95130.00;;;;5072984;28;20218;-62
2023/12/21 08:24:57;;;;;;;0.80;0.80;;;;;5.10;95114.00;;;;5072891;28;20194;-62
2023/12/21 08:27:26;;;;;;;0.57;0.57;;;;;5.30;95099.00;;;;5073881;28;20242;-62
2023/12/21 08:29:53;;;;;;;0.67;0.67;;;;;5.10;95087.00;;;;5072906;28;20198;-62
2023/12/21 08:32:21;;;;;;;0.60;0.60;;;;;5.10;95087.00;;;;5073049;28;20681;-62
2023/12/21 08:34:48;;;;;;;0.60;0.60;;;;;5.20;95076.00;;;;5072780;28;20659;-62
2023/12/21 08:37:17;;;;;;;0.60;0.60;;;;;5.30;95080.00;;;;5073016;28;20203;-62
2023/12/21 08:39:44;;;;;;;0.50;0.50;;;;;5.30;95072.00;;;;5072707;28;20191;-62
2023/12/21 08:42:11;;;;;;;0.70;0.70;;;;;5.30;95068.00;;;;5072728;28;20230;-62
2023/12/21 08:44:41;;;;;;;0.53;0.53;;;;;5.30;95070.00;;;;5072819;28;20209;-62
2023/12/21 08:47:08;;;;;;;0.50;0.50;;;;;5.40;95074.00;;;;5073594;28;20191;-62
2023/12/21 08:49:36;;;;;;;0.60;0.60;;;;;5.40;95082.00;;;;5074098;28;20199;-62
2023/12/21 08:52:03;;;;;;;0.60;0.60;;;;;5.40;95096.00;;;;5073625;28;20234;-61
2023/12/21 08:54:31;;;;;;;0.60;0.60;;;;;5.40;95099.00;;;;5076663;28;20194;-61
2023/12/21 08:56:58;;;;;;;0.60;0.60;;;;;5.40;95087.00;;;;5076424;28;20208;-62
2023/12/21 08:59:26;;;;;;;0.50;0.50;;;;;5.50;95078.00;;;;5076604;28;20200;-62
2023/12/21 09:01:56;;;;;;;0.50;0.50;;;;;5.70;95068.00;;;;5076408;28;20611;-62
2023/12/21 09:04:23;;;;;;;0.50;0.50;;;;;5.50;95046.00;;;;5076615;28;20616;-62
2023/12/21 09:06:51;;;;;;;0.60;0.60;;;;;5.70;95047.00;;;;5076417;28;20553;-62
2023/12/21 09:09:18;;;;;;;0.60;0.60;;;;;5.60;95053.00;;;;5076773;28;20299;-62
2023/12/21 09:11:46;;;;;;;0.60;0.60;;;;;5.80;95053.00;;;;5076607;28;20790;-62
2023/12/21 09:14:13;;;;;;;0.60;0.60;;;;;5.80;95058.00;;;;5076396;28;20200;-62
2023/12/21 09:16:41;;;;;;;0.60;0.60;;;;;5.90;95050.00;;;;5075974;28;20215;-62
2023/12/21 09:19:10;;;;;;;0.60;0.60;;;;;5.90;95046.00;;;;5076307;28;20206;-62
2023/12/21 09:21:37;;;;;;;0.50;0.50;;;;;6.00;95043.00;;;;5075922;28;20215;-62
2023/12/21 09:24:05;;;;;;;0.53;0.53;;;;;6.10;95032.00;;;;5076046;28;20257;-62
2023/12/21 09:26:33;;;;;;;0.67;0.67;;;;;6.00;95017.00;;;;5075932;28;20585;-62
2023/12/21 09:29:03;;;;;;;0.40;0.40;;;;;6.00;95023.00;;;;5075856;28;20191;-63
2023/12/21 09:31:31;;;;;;;0.50;0.50;;;;;6.10;95019.00;;;;5076281;28;20692;-62
2023/12/21 09:33:59;;;;;;;0.50;0.50;;;;;6.10;95032.00;;;;5076041;28;20192;-62
2023/12/21 09:36:28;;;;;;;0.50;0.50;;;;;6.10;95040.00;;;;5075525;28;20270;-62
2023/12/21 09:38:56;;;;;;;0.60;0.60;;;;;6.30;95035.00;;;;5075652;28;20221;-62
2023/12/21 09:41:23;;;;;;;0.60;0.60;;;;;6.10;95005.00;;;;5075630;28;20192;-62
2023/12/21 09:43:53;;;;;;;0.50;0.50;;;;;6.00;95028.00;;;;5075461;28;20192;-62
2023/12/21 09:46:25;;;;;;;0.50;0.50;;;;;6.00;94985.00;;;;5075463;28;20551;-60
2023/12/21 09:48:54;;;;;;;0.57;0.57;;;;;6.00;94988.00;;;;5075465;28;20182;-61
2023/12/21 09:51:24;;;;;;;0.60;0.60;;;;;6.20;95001.00;;;;5075604;28;20193;-62
2023/12/21 09:53:55;;;;;;;0.53;0.53;;;;;6.30;94987.00;;;;5076077;28;20194;-62
2023/12/21 09:56:24;;;;;;;0.53;0.53;;;;;6.20;95031.00;;;;5074052;28;20221;-62
2023/12/21 09:58:52;;;;;;;0.50;0.50;;;;;6.20;94979.00;;;;5075339;28;20195;-62
2023/12/21 10:01:19;;;;;;;0.60;0.60;;;;;6.10;94973.00;;;;5075628;28;20195;-62
2023/12/21 10:03:47;;;;;;;0.50;0.50;;;;;6.00;94975.00;;;;5075321;28;20192;-63
2023/12/21 10:06:15;;;;;;;0.60;0.60;;;;;6.10;94978.00;;;;5075182;28;20278;-62
2023/12/21 10:08:47;;;;;;;0.60;0.60;;;;;6.20;94988.00;;;;5075426;28;20195;-62
2023/12/21 10:11:17;;;;;;;0.60;0.60;;;;;6.20;94997.00;;;;5074871;28;20211;-62
2023/12/21 10:13:47;;;;;;;0.50;0.50;;;;;6.30;94964.00;;;;5074861;28;20199;-62
2023/12/21 10:16:16;;;;;;;0.60;0.60;;;;;6.20;94980.00;;;;5073631;28;20199;-62
2023/12/21 10:18:44;;;;;;;0.60;0.60;;;;;6.30;94951.00;;;;5074911;28;20201;-62
2023/12/21 10:21:11;;;;;;;0.60;0.60;;;;;6.30;94959.00;;;;5073774;28;20192;-62
2023/12/21 10:23:41;;;;;;;0.60;0.60;;;;;6.30;94969.00;;;;5074908;28;20203;-62
2023/12/21 10:26:09;;;;;;;0.60;0.60;;;;;6.30;94922.00;;;;5073604;28;20253;-62
2023/12/21 10:28:37;;;;;;;0.57;0.57;;;;;6.40;94900.00;;;;5074888;28;20200;-62
2023/12/21 10:31:06;;;;;;;0.50;0.50;;;;;6.40;94888.00;;;;5075467;28;20197;-60
2023/12/21 10:33:35;;;;;;;0.60;0.60;;;;;6.30;94892.00;;;;5074447;28;20283;-63
2023/12/21 10:36:02;;;;;;;0.50;0.50;;;;;6.40;94914.00;;;;5074427;28;20197;-60
2023/12/21 10:38:31;;;;;;;0.60;0.60;;;;;6.50;94912.00;;;;5074509;28;20199;-62
2023/12/21 10:41:05;;;;;;;0.60;0.60;;;;;6.40;94882.00;;;;5074565;28;20200;-61
2023/12/21 10:43:34;;;;;;;0.50;0.50;;;;;6.50;94847.00;;;;5074375;28;20220;-61
2023/12/21 10:46:03;;;;;;;0.60;0.60;;;;;6.40;94861.00;;;;5074659;28;20243;-62
2023/12/21 10:48:33;;;;;;;0.60;0.60;;;;;6.60;94846.00;;;;5074365;28;20190;-62
2023/12/21 10:51:04;;;;;;;0.60;0.60;;;;;6.60;94812.00;;;;5074530;28;20192;-61
2023/12/21 10:53:36;;;;;;;0.60;0.60;;;;;6.60;94829.00;;;;5075070;28;20211;-61
2023/12/21 10:56:05;;;;;;;0.70;0.70;;;;;6.70;94787.00;;;;5074169;28;20665;-62
2023/12/21 10:58:34;;;;;;;0.53;0.53;;;;;6.80;94784.00;;;;5074290;28;20223;-61
2023/12/21 11:01:06;;;;;;;0.50;0.50;;;;;6.80;94799.00;;;;5074156;28;20195;-62
2023/12/21 11:03:34;;;;;;;0.60;0.60;;;;;6.80;94789.00;;;;5072861;28;20229;-62
2023/12/21 11:06:04;;;;;;;0.57;0.57;;;;;6.70;94786.00;;;;5073911;28;20190;-62
2023/12/21 11:08:32;;;;;;;0.70;0.70;;;;;6.90;94758.00;;;;5072605;28;20197;-61
2023/12/21 11:11:00;;;;;;;0.40;0.40;;;;;6.80;94750.00;;;;5074152;28;20272;-62
2023/12/21 11:13:27;;;;;;;0.60;0.60;;;;;6.80;94764.00;;;;5074372;28;20218;-61
2023/12/21 11:15:55;;;;;;;0.83;0.70;;;;;6.80;94770.00;;;;5073585;28;20680;-61
2023/12/21 11:18:25;;;;;;;0.53;0.53;;;;;6.90;94778.00;;;;5073611;28;20729;-61
2023/12/21 11:20:56;;;;;;;0.57;0.57;;;;;6.90;94753.00;;;;5073857;28;20194;-61
2023/12/21 11:23:29;;;;;;;0.53;0.53;;;;;6.90;94825.00;;;;5073724;28;20222;-61
2023/12/21 11:25:57;;;;;;;0.50;0.50;;;;;7.00;94730.00;;;;5074014;28;20612;-61
2023/12/21 11:28:30;;;;;;;0.60;0.60;;;;;7.00;94744.00;;;;5073700;28;20222;-62
2023/12/21 11:30:58;;;;;;;0.90;0.90;;;;;7.00;94752.00;;;;5074127;28;20677;-62
2023/12/21 11:33:31;;;;;;;1.23;1.17;;;;;7.00;94733.00;;;;5073478;28;20207;-62
2023/12/21 11:35:58;;;;;;;0.87;0.87;;;;;7.10;94722.00;;;;5073722;28;20194;-62
2023/12/21 11:38:45;;;;;;;2.50;1.43;;;;;7.00;94739.00;;;;5073404;28;20615;-62
2023/12/21 11:41:12;;;;;;;0.70;0.70;;;;;7.00;94716.00;;;;5073490;28;20635;-62
2023/12/21 11:43:41;;;;;;;0.60;0.60;;;;;7.10;94730.00;;;;5073746;28;20195;-62
2023/12/21 11:46:10;;;;;;;0.50;0.50;;;;;7.10;94741.00;;;;5074000;28;20662;-62
2023/12/21 11:48:39;;;;;;;0.50;0.50;;;;;7.00;94711.00;;;;5073431;28;20192;-62
2023/12/21 11:51:07;;;;;;;0.60;0.60;;;;;7.10;94703.00;;;;5073193;28;20222;-62
2023/12/21 11:53:35;;;;;;;0.50;0.50;;;;;7.00;94681.00;;;;5073251;28;20658;-62
2023/12/21 11:56:13;;;;;;;0.50;0.50;;;;;7.10;94699.00;;;;5073354;28;20194;-62
2023/12/21 11:58:41;;;;;;;0.60;0.60;;;;;7.10;94697.00;;;;5073381;28;20199;-62
2023/12/21 12:01:21;;;;;;;0.50;0.50;;;;;7.20;94722.00;;;;5073223;28;20193;-62